createdAt,value
2022-10-08T00:01:57.085Z,97984.13
2022-10-08T00:03:58.456Z,97984.13
2022-10-08T00:05:59.780Z,97976.47
2022-10-08T00:08:02.230Z,97978.19
2022-10-08T00:10:06.264Z,97976.53
2022-10-08T00:12:07.551Z,97974.84
2022-10-08T00:14:09.324Z,97975.69
2022-10-08T00:16:12.286Z,97975.75
2022-10-08T00:18:13.669Z,97969.72
2022-10-08T00:20:14.949Z,97973.09
2022-10-08T00:22:16.242Z,97964.50
2022-10-08T00:24:17.560Z,97967.00
2022-10-08T00:26:18.887Z,97972.03
2022-10-08T00:28:20.231Z,97974.47
2022-10-08T00:30:21.600Z,97972.72
2022-10-08T00:32:22.890Z,97967.63
2022-10-08T00:34:24.191Z,97968.50
2022-10-08T00:36:25.550Z,97962.56
2022-10-08T00:38:26.842Z,97954.97
2022-10-08T00:40:28.128Z,97960.94
2022-10-08T00:42:29.436Z,97963.53
2022-10-08T00:44:30.715Z,97966.09
2022-10-08T00:46:32.024Z,97950.84
2022-10-08T00:48:33.541Z,97951.75
2022-10-08T00:50:34.798Z,97948.38
2022-10-08T00:52:36.298Z,97947.56
2022-10-08T00:54:37.575Z,97948.47
2022-10-08T00:56:38.907Z,97940.84
2022-10-08T00:58:40.171Z,97939.22
2022-10-08T01:00:41.535Z,97935.81
2022-10-08T01:02:42.911Z,97929.91
2022-10-08T01:04:44.431Z,97935.88
2022-10-08T01:06:45.722Z,97939.28
2022-10-08T01:08:47.003Z,97941.78
2022-10-08T01:10:48.447Z,97932.41
2022-10-08T01:12:50.355Z,97927.19
2022-10-08T01:14:51.655Z,97929.69
2022-10-08T01:16:54.265Z,97916.88
2022-10-08T01:18:55.559Z,97921.97
2022-10-08T01:20:56.869Z,97919.41
2022-10-08T01:22:58.147Z,97919.41
2022-10-08T01:25:17.992Z,97921.97
2022-10-08T01:27:19.271Z,97927.88
2022-10-08T01:29:21.510Z,97924.44
2022-10-08T01:31:22.889Z,97921.06
2022-10-08T01:33:24.243Z,97917.59
2022-10-08T01:35:26.215Z,97920.19
2022-10-08T01:37:28.380Z,97915.13
2022-10-08T01:39:29.966Z,97921.06
2022-10-08T01:41:31.315Z,97942.38
2022-10-08T01:43:32.644Z,97916.88
2022-10-08T01:45:33.973Z,97920.31
2022-10-08T01:47:35.283Z,97913.56
2022-10-08T01:49:36.548Z,97911.88
2022-10-08T01:51:38.105Z,97912.75
2022-10-08T01:53:39.406Z,97902.47
2022-10-08T01:55:40.735Z,97906.72
2022-10-08T01:57:41.993Z,97905.00
2022-10-08T01:59:43.282Z,97901.56
2022-10-08T02:01:44.754Z,97897.28
2022-10-08T02:04:06.047Z,97895.53
2022-10-08T02:06:07.311Z,97889.53
2022-10-08T02:08:08.626Z,97891.16
2022-10-08T02:10:09.890Z,97887.69
2022-10-08T02:12:11.214Z,97884.28
2022-10-08T02:14:12.495Z,97884.28
2022-10-08T02:16:14.788Z,97882.50
2022-10-08T02:18:16.087Z,97884.94
2022-10-08T02:20:17.737Z,97878.06
2022-10-08T02:22:19.023Z,97878.91
2022-10-08T02:24:20.349Z,97873.75
2022-10-08T02:26:21.638Z,97878.00
2022-10-08T02:28:22.963Z,97875.47
2022-10-08T02:30:24.288Z,97871.25
2022-10-08T02:32:25.583Z,97873.03
2022-10-08T02:34:26.909Z,97875.69
2022-10-08T02:36:28.182Z,97869.81
2022-10-08T02:38:29.459Z,97874.91
2022-10-08T02:40:30.759Z,97871.50
2022-10-08T02:42:32.082Z,97872.31
2022-10-08T02:44:33.525Z,97866.41
2022-10-08T02:46:35.222Z,97874.06
2022-10-08T02:48:36.514Z,97873.22
2022-10-08T02:50:38.013Z,97868.94
2022-10-08T02:52:39.721Z,97879.13
2022-10-08T02:54:41.012Z,97876.56
2022-10-08T02:56:42.307Z,97877.22
2022-10-08T02:58:43.787Z,97869.50
2022-10-08T03:00:45.059Z,97874.53
2022-10-08T03:02:46.734Z,97862.69
2022-10-08T03:04:48.226Z,97872.03
2022-10-08T03:06:49.485Z,97864.41
2022-10-08T03:08:50.937Z,97862.69
2022-10-08T03:10:52.247Z,97861.84
2022-10-08T03:12:53.604Z,97867.81
2022-10-08T03:14:54.888Z,97868.69
2022-10-08T03:16:56.199Z,97864.47
2022-10-08T03:18:59.186Z,97866.16
2022-10-08T03:21:00.519Z,97871.31
2022-10-08T03:23:02.015Z,97872.97
2022-10-08T03:25:03.289Z,97867.88
2022-10-08T03:27:04.567Z,97864.47
2022-10-08T03:29:05.834Z,97863.59
2022-10-08T03:31:07.213Z,97864.50
2022-10-08T03:33:08.523Z,97859.34
2022-10-08T03:35:09.857Z,97855.09
2022-10-08T03:37:11.195Z,97854.25
2022-10-08T03:39:12.498Z,97862.88
2022-10-08T03:41:13.788Z,97864.66
2022-10-08T03:43:15.098Z,97864.78
2022-10-08T03:45:16.374Z,97857.97
2022-10-08T03:47:17.663Z,97851.22
2022-10-08T03:49:18.943Z,97850.44
2022-10-08T03:51:20.251Z,97855.41
2022-10-08T03:53:21.530Z,97855.34
2022-10-08T03:55:22.863Z,97851.09
2022-10-08T03:57:24.135Z,97853.63
2022-10-08T03:59:25.411Z,97851.16
2022-10-08T04:01:26.732Z,97849.47
2022-10-08T04:03:28.066Z,97851.22
2022-10-08T04:05:29.342Z,97847.81
2022-10-08T04:07:30.671Z,97845.31
2022-10-08T04:09:31.964Z,97843.59
2022-10-08T04:11:33.262Z,97851.25
2022-10-08T04:13:34.579Z,97835.94
2022-10-08T04:15:35.885Z,97843.59
2022-10-08T04:17:38.008Z,97847.81
2022-10-08T04:19:39.302Z,97835.13
2022-10-08T04:21:40.814Z,97836.84
2022-10-08T04:23:42.089Z,97839.38
2022-10-08T04:25:43.363Z,97847.03
2022-10-08T04:27:49.120Z,97845.41
2022-10-08T04:29:50.386Z,97844.44
2022-10-08T04:31:51.667Z,97846.91
2022-10-08T04:33:53.014Z,97851.97
2022-10-08T04:35:59.727Z,97848.56
2022-10-08T04:38:01.495Z,97840.06
2022-10-08T04:40:02.779Z,97837.50
2022-10-08T04:42:04.047Z,97844.31
2022-10-08T04:44:05.338Z,97841.75
2022-10-08T04:46:06.639Z,97840.09
2022-10-08T04:48:08.010Z,97846.03
2022-10-08T04:50:09.272Z,97848.56
2022-10-08T04:52:10.902Z,97840.94
2022-10-08T04:54:12.220Z,97849.41
2022-10-08T04:56:13.478Z,97842.59
2022-10-08T04:58:14.756Z,97845.97
2022-10-08T05:00:18.696Z,97845.81
2022-10-08T05:02:20.263Z,97853.63
2022-10-08T05:04:21.595Z,97861.38
2022-10-08T05:06:22.898Z,97852.94
2022-10-08T05:08:24.230Z,97848.69
2022-10-08T05:10:25.512Z,97849.50
2022-10-08T05:12:26.782Z,97849.50
2022-10-08T05:14:28.148Z,97844.31
2022-10-08T05:16:29.490Z,97851.97
2022-10-08T05:18:30.754Z,97851.09
2022-10-08T05:20:32.078Z,97851.97
2022-10-08T05:22:33.371Z,97846.06
2022-10-08T05:24:34.699Z,97850.25
2022-10-08T05:26:57.061Z,97856.22
2022-10-08T05:28:57.222Z,97852.88
2022-10-08T05:30:58.618Z,97869.94
2022-10-08T05:32:59.934Z,97856.31
2022-10-08T05:35:01.243Z,97849.59
2022-10-08T05:37:02.532Z,97857.97
2022-10-08T05:39:03.854Z,97858.03
2022-10-08T05:41:05.161Z,97860.63
2022-10-08T05:43:06.455Z,97857.25
2022-10-08T05:45:07.767Z,97859.78
2022-10-08T05:47:09.054Z,97864.00
2022-10-08T05:49:10.351Z,97872.56
2022-10-08T05:51:11.616Z,97868.31
2022-10-08T05:53:12.946Z,97871.72
2022-10-08T05:55:14.259Z,97885.34
2022-10-08T05:57:15.533Z,97871.72
2022-10-08T05:59:17.013Z,97880.28
2022-10-08T06:01:20.103Z,97873.53
2022-10-08T06:03:21.374Z,97868.44
2022-10-08T06:05:22.739Z,97878.72
2022-10-08T06:07:24.013Z,97883.03
2022-10-08T06:09:25.303Z,97878.81
2022-10-08T06:11:27.139Z,97879.69
2022-10-08T06:13:28.415Z,97882.28
2022-10-08T06:15:29.708Z,97880.59
2022-10-08T06:17:30.987Z,97884.84
2022-10-08T06:19:34.151Z,97897.59
2022-10-08T06:21:35.407Z,97889.16
2022-10-08T06:23:36.689Z,97889.25
2022-10-08T06:25:38.167Z,97895.22
2022-10-08T06:27:39.451Z,97889.16
2022-10-08T06:29:40.743Z,97888.19
2022-10-08T06:31:42.223Z,97895.78
2022-10-08T06:33:43.563Z,97889.78
2022-10-08T06:35:44.830Z,97889.81
2022-10-08T06:37:46.151Z,97886.66
2022-10-08T06:39:48.568Z,97891.56
2022-10-08T06:41:49.959Z,97902.63
2022-10-08T06:43:51.270Z,97906.91
2022-10-08T06:45:53.321Z,97909.34
2022-10-08T06:47:54.601Z,97910.16
2022-10-08T06:49:55.891Z,97910.16
2022-10-08T06:51:57.142Z,97911.75
2022-10-08T06:54:02.884Z,97910.91
2022-10-08T06:56:08.233Z,97910.16
2022-10-08T06:58:09.506Z,97902.50
2022-10-08T07:00:10.783Z,97914.13
2022-10-08T07:02:12.152Z,97903.47
2022-10-08T07:04:13.507Z,97917.06
2022-10-08T07:06:14.779Z,97914.19
2022-10-08T07:08:16.198Z,97918.56
2022-10-08T07:10:18.543Z,97924.69
2022-10-08T07:12:19.988Z,97935.81
2022-10-08T07:14:21.475Z,97833.13
2022-10-08T07:16:23.287Z,97923.00
2022-10-08T07:18:24.707Z,97932.91
2022-10-08T07:20:26.203Z,97929.50
2022-10-08T07:22:27.547Z,97924.78
2022-10-08T07:24:28.870Z,97917.88
2022-10-08T07:26:30.223Z,97926.28
2022-10-08T07:28:31.700Z,97916.06
2022-10-08T07:30:33.234Z,97922.84
2022-10-08T07:32:34.511Z,97910.16
2022-10-08T07:34:35.792Z,97918.63
2022-10-08T07:36:37.128Z,97929.72
2022-10-08T07:38:38.415Z,97931.41
2022-10-08T07:40:39.692Z,97928.00
2022-10-08T07:42:41.170Z,97927.97
2022-10-08T07:44:42.431Z,97927.97
2022-10-08T07:46:43.787Z,97925.41
2022-10-08T07:48:45.134Z,97924.50
2022-10-08T07:50:46.540Z,97924.47
2022-10-08T07:52:48.082Z,97931.25
2022-10-08T07:54:49.559Z,97923.59
2022-10-08T07:56:50.908Z,97931.31
2022-10-08T07:58:52.223Z,97932.16
2022-10-08T08:00:53.610Z,97932.22
2022-10-08T08:02:54.954Z,97930.88
2022-10-08T08:04:56.291Z,97933.81
2022-10-08T08:06:57.611Z,97937.75
2022-10-08T08:08:58.942Z,97938.66
2022-10-08T08:11:00.264Z,97936.16
2022-10-08T08:13:01.567Z,97946.03
2022-10-08T08:15:03.121Z,97943.38
2022-10-08T08:17:04.414Z,97942.50
2022-10-08T08:19:05.691Z,97945.16
2022-10-08T08:21:06.987Z,97945.56
2022-10-08T08:23:08.307Z,97943.31
2022-10-08T08:25:09.575Z,97937.16
2022-10-08T08:27:10.891Z,97935.31
2022-10-08T08:29:12.247Z,97935.41
2022-10-08T08:31:14.028Z,97940.25
2022-10-08T08:33:15.281Z,97935.41
2022-10-08T08:35:16.616Z,97944.09
2022-10-08T08:37:17.961Z,97949.31
2022-10-08T08:39:19.268Z,97948.56
2022-10-08T08:41:20.841Z,97950.31
2022-10-08T08:43:22.363Z,97947.78
2022-10-08T08:45:45.478Z,97947.84
2022-10-08T08:47:46.724Z,97954.69
2022-10-08T08:49:48.055Z,97944.44
2022-10-08T08:51:49.476Z,97955.44
2022-10-08T08:53:50.762Z,97951.22
2022-10-08T08:55:52.198Z,97950.38
2022-10-08T08:57:53.492Z,97947.00
2022-10-08T08:59:54.966Z,97947.84
2022-10-08T09:01:56.287Z,97946.94
2022-10-08T09:03:57.550Z,97954.59
2022-10-08T09:05:58.831Z,97947.03
2022-10-08T09:08:00.203Z,97950.50
2022-10-08T09:10:01.711Z,97943.81
2022-10-08T09:12:03.033Z,97946.38
2022-10-08T09:14:04.311Z,97952.38
2022-10-08T09:16:05.655Z,97943.94
2022-10-08T09:18:07.015Z,97954.13
2022-10-08T09:20:08.286Z,97951.59
2022-10-08T09:22:09.576Z,97955.03
2022-10-08T09:24:10.858Z,97967.81
2022-10-08T09:26:13.590Z,97960.22
2022-10-08T09:28:14.894Z,97965.38
2022-10-08T09:30:16.179Z,97961.13
2022-10-08T09:32:17.663Z,97965.41
2022-10-08T09:34:19.091Z,97968.81
2022-10-08T09:36:20.354Z,97968.03
2022-10-08T09:38:21.615Z,97973.13
2022-10-08T09:40:22.971Z,97964.69
2022-10-08T09:42:24.255Z,97973.25
2022-10-08T09:44:25.537Z,97981.75
2022-10-08T09:46:26.857Z,97975.00
2022-10-08T09:48:28.158Z,97978.44
2022-10-08T09:50:29.446Z,97977.53
2022-10-08T09:52:30.750Z,97980.09
2022-10-08T09:54:32.019Z,97973.50
2022-10-08T09:56:33.904Z,97975.41
2022-10-08T09:58:35.697Z,97972.72
2022-10-08T10:00:37.156Z,97974.56
2022-10-08T10:02:38.431Z,97981.19
2022-10-08T10:04:40.478Z,97985.38
2022-10-08T10:06:41.750Z,97983.53
2022-10-08T10:08:48.273Z,97978.31
2022-10-08T10:10:49.560Z,97975.63
2022-10-08T10:12:50.911Z,97982.75
2022-10-08T10:14:52.234Z,97979.16
2022-10-08T10:16:53.611Z,97974.13
2022-10-08T10:18:54.905Z,97972.16
2022-10-08T10:20:58.489Z,97975.88
2022-10-08T10:22:59.826Z,97984.63
2022-10-08T10:25:01.126Z,97981.41
2022-10-08T10:27:02.399Z,97977.25
2022-10-08T10:29:03.667Z,97976.47
2022-10-08T10:31:04.997Z,97973.97
2022-10-08T10:33:06.349Z,97974.72
2022-10-08T10:35:07.655Z,97978.97
2022-10-08T10:37:08.950Z,97978.00
2022-10-08T10:39:10.258Z,97983.09
2022-10-08T10:41:11.535Z,97984.69
2022-10-08T10:43:12.803Z,97977.13
2022-10-08T10:45:14.157Z,97979.75
2022-10-08T10:47:15.554Z,97978.13
2022-10-08T10:49:16.841Z,97974.66
2022-10-08T10:51:18.140Z,97973.81
2022-10-08T10:53:20.385Z,97978.78
2022-10-08T10:55:21.664Z,97971.06
2022-10-08T10:57:22.922Z,97962.56
2022-10-08T10:59:24.183Z,97959.03
2022-10-08T11:01:25.509Z,97965.84
2022-10-08T11:03:26.870Z,97965.03
2022-10-08T11:05:28.149Z,97952.53
2022-10-08T11:07:29.426Z,97958.44
2022-10-08T11:09:30.929Z,97965.84
2022-10-08T11:11:33.321Z,97959.84
2022-10-08T11:13:34.763Z,97967.63
2022-10-08T11:15:36.178Z,97969.31
2022-10-08T11:17:37.528Z,97963.50
2022-10-08T11:19:38.838Z,97965.34
2022-10-08T11:21:40.130Z,97971.44
2022-10-08T11:23:41.427Z,97965.56
2022-10-08T11:26:03.020Z,97829.66
2022-10-08T11:28:04.160Z,97961.41
2022-10-08T11:30:05.791Z,97965.78
2022-10-08T11:32:07.119Z,97972.66
2022-10-08T11:34:08.419Z,97971.06
2022-10-08T11:36:09.689Z,97970.28
2022-10-08T11:38:10.970Z,97967.72
2022-10-08T11:40:12.260Z,97960.81
2022-10-08T11:42:13.562Z,97961.34
2022-10-08T11:44:14.887Z,97962.75
2022-10-08T11:46:16.866Z,97966.81
2022-10-08T11:48:18.171Z,97959.28
2022-10-08T11:50:19.444Z,97966.84
2022-10-08T11:52:20.771Z,97952.44
2022-10-08T11:54:22.042Z,97948.22
2022-10-08T11:56:23.324Z,97955.28
2022-10-08T11:58:24.798Z,97954.47
2022-10-08T12:00:26.304Z,97969.06
2022-10-08T12:02:27.798Z,97963.13
2022-10-08T12:04:29.178Z,97961.44
2022-10-08T12:06:30.551Z,97966.63
2022-10-08T12:08:31.863Z,97967.50
2022-10-08T12:10:33.220Z,97968.28
2022-10-08T12:12:34.477Z,97963.91
2022-10-08T12:14:35.770Z,97963.72
2022-10-08T12:16:37.096Z,97959.97
2022-10-08T12:18:38.373Z,97961.03
2022-10-08T12:20:39.637Z,97962.00
2022-10-08T12:22:40.922Z,97964.56
2022-10-08T12:24:50.167Z,97966.28
2022-10-08T12:26:51.895Z,97963.66
2022-10-08T12:28:53.221Z,97962.88
2022-10-08T12:30:54.553Z,97977.47
2022-10-08T12:32:55.924Z,97972.31
2022-10-08T12:34:57.316Z,97967.78
2022-10-08T12:36:58.640Z,97948.63
2022-10-08T12:38:59.910Z,97968.75
2022-10-08T12:41:01.200Z,97972.28
2022-10-08T12:43:02.478Z,97971.56
2022-10-08T12:45:03.755Z,97974.38
2022-10-08T12:47:05.146Z,97975.31
2022-10-08T12:49:06.526Z,97967.69
2022-10-08T12:51:07.820Z,97976.22
2022-10-08T12:53:09.214Z,97965.13
2022-10-08T12:55:10.471Z,97968.50
2022-10-08T12:57:11.737Z,97967.63
2022-10-08T12:59:13.076Z,97996.53
2022-10-08T13:01:14.398Z,97974.38
2022-10-08T13:03:16.510Z,97972.72
2022-10-08T13:05:17.823Z,97969.31
2022-10-08T13:07:19.134Z,97971.06
2022-10-08T13:09:20.468Z,97963.25
2022-10-08T13:11:22.074Z,97964.22
2022-10-08T13:13:23.333Z,97971.97
2022-10-08T13:15:26.101Z,97973.75
2022-10-08T13:17:27.366Z,97972.78
2022-10-08T13:19:28.877Z,97980.25
2022-10-08T13:21:30.174Z,97975.94
2022-10-08T13:23:31.467Z,97985.97
2022-10-08T13:25:32.791Z,97988.81
2022-10-08T13:27:34.131Z,97977.03
2022-10-08T13:29:35.501Z,97988.03
2022-10-08T13:31:37.055Z,97987.19
2022-10-08T13:33:38.974Z,97983.94
2022-10-08T13:35:40.234Z,97990.03
2022-10-08T13:37:41.503Z,97979.84
2022-10-08T13:39:42.826Z,97996.84
2022-10-08T13:41:44.124Z,97996.00
2022-10-08T13:43:45.395Z,97999.50
2022-10-08T13:45:46.710Z,97998.75
2022-10-08T13:47:48.428Z,97997.97
2022-10-08T13:49:50.041Z,98001.53
2022-10-08T13:51:51.388Z,98002.47
2022-10-08T13:53:56.942Z,98000.00
2022-10-08T13:55:58.611Z,97994.13
2022-10-08T13:58:02.747Z,97995.03
2022-10-08T14:00:04.011Z,98001.88
2022-10-08T14:02:05.367Z,97993.41
2022-10-08T14:04:06.691Z,97991.78
2022-10-08T14:06:07.967Z,97999.41
2022-10-08T14:08:09.290Z,98001.13
2022-10-08T14:10:11.598Z,98000.28
2022-10-08T14:12:12.852Z,97885.41
2022-10-08T14:14:14.686Z,97997.75
2022-10-08T14:16:16.031Z,97998.63
2022-10-08T14:18:17.419Z,97996.94
2022-10-08T14:20:18.870Z,98001.13
2022-10-08T14:22:20.152Z,97995.19
2022-10-08T14:24:21.466Z,97996.94
2022-10-08T14:26:22.799Z,97997.78
2022-10-08T14:28:24.125Z,97996.13
2022-10-08T14:30:25.473Z,98007.22
2022-10-08T14:32:26.731Z,98003.88
2022-10-08T14:34:28.067Z,98008.13
2022-10-08T14:36:29.354Z,98009.00
2022-10-08T14:38:34.055Z,98006.47
2022-10-08T14:40:35.350Z,98016.69
2022-10-08T14:42:36.602Z,98006.50
2022-10-08T14:44:37.870Z,98003.94
2022-10-08T14:46:39.134Z,98013.28
2022-10-08T14:48:40.575Z,98006.50
2022-10-08T14:50:41.874Z,97995.34
2022-10-08T14:52:44.564Z,97995.19
2022-10-08T14:54:46.139Z,97996.19
2022-10-08T14:56:47.610Z,98007.28
2022-10-08T14:58:48.877Z,98020.94
2022-10-08T15:00:50.271Z,98025.25
2022-10-08T15:02:52.027Z,98022.72
2022-10-08T15:04:54.874Z,98021.88
2022-10-08T15:06:56.182Z,98030.38
2022-10-08T15:08:57.454Z,98019.34
2022-10-08T15:10:58.728Z,98019.34
2022-10-08T15:13:00.004Z,98027.84
2022-10-08T15:15:01.315Z,98021.09
2022-10-08T15:17:02.590Z,98026.19
2022-10-08T15:19:03.916Z,98033.03
2022-10-08T15:21:05.203Z,98029.63
2022-10-08T15:23:07.197Z,98033.09
2022-10-08T15:25:08.491Z,98033.97
2022-10-08T15:27:09.767Z,98033.97
2022-10-08T15:29:11.038Z,98038.28
2022-10-08T15:31:12.357Z,98041.66
2022-10-08T15:33:13.631Z,98045.88
2022-10-08T15:35:14.943Z,98040.78
2022-10-08T15:37:16.219Z,98046.72
2022-10-08T15:39:17.822Z,98048.38
2022-10-08T15:41:19.087Z,98052.63
2022-10-08T15:43:20.415Z,98060.22
2022-10-08T15:45:21.732Z,98052.59
2022-10-08T15:47:23.014Z,98049.19
2022-10-08T15:49:24.350Z,98053.47
2022-10-08T15:51:25.670Z,98061.16
2022-10-08T15:53:26.942Z,98069.66
2022-10-08T15:55:28.415Z,98073.91
2022-10-08T15:57:29.732Z,98077.34
2022-10-08T15:59:31.023Z,98094.34
2022-10-08T16:01:32.378Z,97969.81
2022-10-08T16:03:33.765Z,98087.59
2022-10-08T16:05:35.018Z,98093.56
2022-10-08T16:07:36.528Z,98097.00
2022-10-08T16:09:38.043Z,98099.59
2022-10-08T16:11:39.339Z,98105.53
2022-10-08T16:13:40.596Z,98108.13
2022-10-08T16:15:41.867Z,98116.63
2022-10-08T16:17:43.138Z,98127.66
2022-10-08T16:19:44.665Z,98138.75
2022-10-08T16:21:45.938Z,98131.97
2022-10-08T16:23:47.215Z,98151.50
2022-10-08T16:25:48.490Z,98154.03
2022-10-08T16:27:50.268Z,98154.00
2022-10-08T16:29:51.769Z,98165.00
2022-10-08T16:31:53.758Z,98163.28
2022-10-08T16:33:55.040Z,98172.59
2022-10-08T16:35:56.362Z,98181.03
2022-10-08T16:37:57.641Z,98180.19
2022-10-08T16:40:03.785Z,98182.66
2022-10-08T16:42:05.111Z,98178.34
2022-10-08T16:44:09.867Z,98176.63
2022-10-08T16:46:13.573Z,98185.94
2022-10-08T16:48:14.931Z,98182.53
2022-10-08T16:50:16.215Z,98185.91
2022-10-08T16:52:17.484Z,98179.13
2022-10-08T16:54:18.812Z,98179.13
2022-10-08T16:56:20.086Z,98180.81
2022-10-08T16:58:21.402Z,98186.78
2022-10-08T17:00:22.680Z,98193.56
2022-10-08T17:02:26.104Z,98198.66
2022-10-08T17:04:28.391Z,98197.81
2022-10-08T17:06:29.679Z,98194.41
2022-10-08T17:08:31.012Z,98187.59
2022-10-08T17:10:32.299Z,98195.22
2022-10-08T17:12:33.569Z,98202.88
2022-10-08T17:14:35.459Z,98206.31
2022-10-08T17:16:36.809Z,98199.56
2022-10-08T17:18:38.194Z,98208.06
2022-10-08T17:20:39.876Z,98200.44
2022-10-08T17:22:41.216Z,98208.09
2022-10-08T17:24:42.554Z,98207.28
2022-10-08T17:26:43.830Z,98220.03
2022-10-08T17:28:45.266Z,98214.94
2022-10-08T17:30:46.670Z,98220.06
2022-10-08T17:32:48.279Z,98242.19
2022-10-08T17:34:49.724Z,98220.97
2022-10-08T17:36:51.022Z,98227.78
2022-10-08T17:38:52.809Z,98226.09
2022-10-08T17:40:54.852Z,98227.00
2022-10-08T17:42:56.213Z,98232.94
2022-10-08T17:44:58.628Z,98229.56
2022-10-08T17:47:00.031Z,98234.69
2022-10-08T17:49:01.375Z,98238.06
2022-10-08T17:51:02.860Z,98236.38
2022-10-08T17:53:04.155Z,98230.44
2022-10-08T17:55:05.442Z,98239.75
2022-10-08T17:57:06.720Z,98241.44
2022-10-08T17:59:08.122Z,98243.13
2022-10-08T18:01:09.513Z,98247.38
2022-10-08T18:03:10.916Z,98255.88
2022-10-08T18:05:12.233Z,98268.63
2022-10-08T18:07:14.799Z,98266.97
2022-10-08T18:09:16.099Z,98268.66
2022-10-08T18:11:17.397Z,98270.38
2022-10-08T18:13:18.755Z,98270.38
2022-10-08T18:15:20.039Z,98272.91
2022-10-08T18:17:21.310Z,98275.47
2022-10-08T18:19:22.796Z,98166.06
2022-10-08T18:21:24.081Z,98288.22
2022-10-08T18:23:25.680Z,98294.19
2022-10-08T18:25:27.275Z,98297.59
2022-10-08T18:27:28.612Z,98300.97
2022-10-08T18:29:29.900Z,98309.47
2022-10-08T18:31:31.323Z,98306.09
2022-10-08T18:33:32.760Z,98305.22
2022-10-08T18:35:35.080Z,98300.13
2022-10-08T18:37:36.391Z,98315.41
2022-10-08T18:39:37.725Z,98307.72
2022-10-08T18:41:40.695Z,98312.81
2022-10-08T18:43:42.146Z,98321.28
2022-10-08T18:45:43.416Z,98317.84
2022-10-08T18:47:44.706Z,98325.50
2022-10-08T18:49:47.322Z,98335.63
2022-10-08T18:51:48.607Z,98329.63
2022-10-08T18:53:49.870Z,98333.88
2022-10-08T18:55:51.159Z,98333.88
2022-10-08T18:57:52.418Z,98334.75
2022-10-08T18:59:53.759Z,98340.72
2022-10-08T19:01:59.088Z,98344.94
2022-10-08T19:04:00.885Z,98347.56
2022-10-08T19:06:02.206Z,98346.69
2022-10-08T19:08:04.230Z,98354.34
2022-10-08T19:10:05.527Z,98353.50
2022-10-08T19:12:08.112Z,98350.09
2022-10-08T19:14:09.450Z,98351.81
2022-10-08T19:16:13.867Z,98358.59
2022-10-08T19:18:15.233Z,98352.66
2022-10-08T19:20:16.594Z,98353.50
2022-10-08T19:22:17.945Z,98354.34
2022-10-08T19:24:20.432Z,98359.44
2022-10-08T19:26:21.762Z,98370.53
2022-10-08T19:28:23.142Z,98373.94
2022-10-08T19:30:28.371Z,98376.47
2022-10-08T19:32:32.945Z,98380.75
2022-10-08T19:34:34.259Z,98381.59
2022-10-08T19:36:35.535Z,98387.59
2022-10-08T19:38:37.026Z,98389.31
2022-10-08T19:40:38.370Z,98393.59
2022-10-08T19:42:40.512Z,98398.69
2022-10-08T19:44:41.881Z,98387.69
2022-10-08T19:46:43.663Z,98390.22
2022-10-08T19:48:44.966Z,98394.47
2022-10-08T19:50:46.271Z,98402.13
2022-10-08T19:52:51.623Z,98400.47
2022-10-08T19:54:53.243Z,98407.22
2022-10-08T19:56:55.924Z,98405.50
2022-10-08T19:58:57.304Z,98417.38
2022-10-08T20:00:58.704Z,98425.00
2022-10-08T20:03:00.047Z,98430.94
2022-10-08T20:05:01.391Z,98424.16
2022-10-08T20:07:02.712Z,98426.72
2022-10-08T20:09:04.374Z,98432.63
2022-10-08T20:11:05.659Z,98437.75
2022-10-08T20:13:07.168Z,98442.84
2022-10-08T20:15:10.065Z,98448.81
2022-10-08T20:17:11.353Z,98446.28
2022-10-08T20:19:12.639Z,98451.38
2022-10-08T20:21:13.901Z,98458.22
2022-10-08T20:23:15.187Z,98454.81
2022-10-08T20:25:21.149Z,98453.13
2022-10-08T20:27:23.319Z,98448.88
2022-10-08T20:29:30.040Z,98456.56
2022-10-08T20:31:32.234Z,98454.00
2022-10-08T20:33:33.542Z,98460.81
2022-10-08T20:35:34.811Z,98455.72
2022-10-08T20:37:36.110Z,98458.31
2022-10-08T20:39:37.382Z,98462.56
2022-10-08T20:41:38.655Z,98459.16
2022-10-08T20:43:40.242Z,98465.13
2022-10-08T20:45:41.518Z,98468.53
2022-10-08T20:47:42.789Z,98463.44
2022-10-08T20:49:44.105Z,98469.34
2022-10-08T20:51:46.032Z,98470.22
2022-10-08T20:53:47.352Z,98482.97
2022-10-08T20:55:48.670Z,98469.41
2022-10-08T20:57:49.991Z,98471.09
2022-10-08T20:59:51.312Z,98469.44
2022-10-08T21:01:52.714Z,98474.53
2022-10-08T21:03:54.673Z,98476.22
2022-10-08T21:05:55.944Z,98480.50
2022-10-08T21:07:57.250Z,98483.88
2022-10-08T21:09:59.531Z,98484.75
2022-10-08T21:12:00.848Z,98478.78
2022-10-08T21:14:03.607Z,98488.97
2022-10-08T21:16:05.023Z,98480.47
2022-10-08T21:18:06.426Z,98484.69
2022-10-08T21:20:07.703Z,98492.31
2022-10-08T21:22:08.987Z,98491.47
2022-10-08T21:24:10.338Z,98499.09
2022-10-08T21:26:11.626Z,98498.22
2022-10-08T21:28:12.983Z,98499.06
2022-10-08T21:30:14.332Z,98499.03
2022-10-08T21:32:16.828Z,98501.59
2022-10-08T21:34:18.154Z,98501.59
2022-10-08T21:36:19.471Z,98498.25
2022-10-08T21:38:20.737Z,98508.44
2022-10-08T21:40:22.018Z,98499.13
2022-10-08T21:42:23.324Z,98507.59
2022-10-08T21:44:24.635Z,98512.69
2022-10-08T21:46:25.906Z,98509.31
2022-10-08T21:48:27.252Z,98519.50
2022-10-08T21:50:29.659Z,98516.06
2022-10-08T21:52:32.453Z,98521.16
2022-10-08T21:54:33.751Z,98522.88
2022-10-08T21:56:35.014Z,98525.41
2022-10-08T21:58:36.278Z,98522.03
2022-10-08T22:00:37.607Z,98520.28
2022-10-08T22:02:38.942Z,98530.53
2022-10-08T22:04:40.238Z,98519.47
2022-10-08T22:06:41.550Z,98533.06
2022-10-08T22:08:42.837Z,98532.25
2022-10-08T22:10:44.191Z,98533.94
2022-10-08T22:12:45.697Z,98543.31
2022-10-08T22:14:47.186Z,98511.16
2022-10-08T22:16:48.536Z,98541.59
2022-10-08T22:18:49.842Z,98539.03
2022-10-08T22:20:51.185Z,98542.91
2022-10-08T22:22:52.454Z,98547.75
2022-10-08T22:24:53.720Z,98547.16
2022-10-08T22:26:55.058Z,98553.97
2022-10-08T22:28:56.331Z,98544.75
2022-10-08T22:30:57.623Z,98552.13
2022-10-08T22:32:58.903Z,98556.50
2022-10-08T22:35:00.227Z,98549.78
2022-10-08T22:37:01.652Z,98555.75
2022-10-08T22:39:02.949Z,98554.84
2022-10-08T22:41:05.269Z,98564.09
2022-10-08T22:43:06.568Z,98562.38
2022-10-08T22:45:07.963Z,98564.06
2022-10-08T22:47:09.269Z,98569.53
2022-10-08T22:49:10.548Z,98562.94
2022-10-08T22:51:11.952Z,98559.50
2022-10-08T22:53:13.247Z,98558.19
2022-10-08T22:55:14.613Z,98562.22
2022-10-08T22:57:15.920Z,98566.00
2022-10-08T22:59:17.215Z,98564.47
2022-10-08T23:01:18.490Z,98565.31
2022-10-08T23:03:19.850Z,98565.81
2022-10-08T23:05:21.226Z,98566.81
2022-10-08T23:07:22.506Z,98562.66
2022-10-08T23:09:23.833Z,98557.53
2022-10-08T23:11:25.633Z,98555.38
2022-10-08T23:13:26.961Z,98556.50
2022-10-08T23:15:28.280Z,98563.81
2022-10-08T23:17:29.603Z,98564.13
2022-10-08T23:19:30.888Z,98569.00
2022-10-08T23:21:32.235Z,98568.31
2022-10-08T23:23:33.585Z,98571.00
2022-10-08T23:25:34.845Z,98588.13
2022-10-08T23:27:36.216Z,98582.28
2022-10-08T23:29:37.505Z,98581.47
2022-10-08T23:31:38.833Z,98578.97
2022-10-08T23:33:40.171Z,98583.25
2022-10-08T23:35:41.473Z,98577.34
2022-10-08T23:37:42.772Z,98580.75
2022-10-08T23:39:44.082Z,98572.28
2022-10-08T23:41:45.350Z,98579.13
2022-10-08T23:43:46.623Z,98579.13
2022-10-08T23:45:47.970Z,98582.53
2022-10-08T23:47:49.274Z,98581.69
2022-10-08T23:49:50.598Z,98585.94